createdAt,value
2018-06-12T00:02:12.500Z,22.20
2018-06-12T00:04:42.048Z,22.20
2018-06-12T00:09:40.673Z,22.20
2018-06-12T00:12:10.230Z,22.20
2018-06-12T00:14:39.758Z,22.20
2018-06-12T00:17:09.301Z,22.10
2018-06-12T00:19:38.828Z,22.10
2018-06-12T00:22:08.352Z,22.10
2018-06-12T00:24:37.878Z,22.10
2018-06-12T00:29:36.531Z,22.10
2018-06-12T00:32:06.044Z,22.20
2018-06-12T00:34:35.608Z,22.10
2018-06-12T00:39:34.213Z,22.10
2018-06-12T00:42:03.744Z,22.10
2018-06-12T00:44:33.271Z,22.10
2018-06-12T00:49:31.882Z,22.10
2018-06-12T00:52:01.393Z,22.10
2018-06-12T00:54:30.911Z,22.10
2018-06-12T00:57:06.027Z,22.10
2018-06-12T00:59:35.637Z,22.10
2018-06-12T01:02:05.270Z,22.10
2018-06-12T01:07:03.868Z,22.00
2018-06-12T01:09:33.405Z,22.10
2018-06-12T01:14:32.307Z,22.00
2018-06-12T01:17:01.869Z,22.00
2018-06-12T01:19:31.404Z,22.00
2018-06-12T01:22:00.946Z,22.10
2018-06-12T01:24:30.460Z,22.00
2018-06-12T01:26:59.980Z,22.00
2018-06-12T01:29:29.527Z,22.00
2018-06-12T01:31:59.096Z,22.00
2018-06-12T01:34:28.627Z,22.00
2018-06-12T01:36:58.172Z,22.00
2018-06-12T01:39:27.708Z,22.00
2018-06-12T01:44:26.330Z,22.00
2018-06-12T01:46:55.878Z,22.00
2018-06-12T01:49:25.405Z,22.00
2018-06-12T01:51:54.918Z,22.00
2018-06-12T01:54:24.469Z,21.90
2018-06-12T01:56:53.992Z,21.90
2018-06-12T01:59:23.521Z,21.90
2018-06-12T02:06:51.685Z,21.90
2018-06-12T02:11:50.301Z,21.90
2018-06-12T02:14:19.849Z,22.00
2018-06-12T02:16:49.385Z,21.90
2018-06-12T02:19:18.948Z,21.90
2018-06-12T02:21:48.489Z,21.90
2018-06-12T02:24:18.008Z,21.90
2018-06-12T02:26:47.537Z,21.90
2018-06-12T02:29:17.062Z,21.90
2018-06-12T02:31:46.607Z,21.90
2018-06-12T02:34:16.128Z,21.90
2018-06-12T02:36:45.663Z,21.90
2018-06-12T02:39:15.198Z,21.90
2018-06-12T02:41:44.718Z,21.90
2018-06-12T02:44:14.238Z,21.90
2018-06-12T02:51:41.925Z,21.90
2018-06-12T02:54:11.449Z,21.90
2018-06-12T02:56:40.982Z,21.90
2018-06-12T02:59:10.508Z,21.90
2018-06-12T03:01:40.021Z,21.90
2018-06-12T03:04:09.551Z,21.80
2018-06-12T03:06:39.076Z,21.90
2018-06-12T03:09:08.990Z,21.90
2018-06-12T03:11:38.513Z,21.80
2018-06-12T03:14:08.040Z,21.90
2018-06-12T03:16:37.605Z,21.80
2018-06-12T03:21:36.199Z,21.80
2018-06-12T03:24:05.734Z,21.80
2018-06-12T03:26:35.259Z,21.80
2018-06-12T03:29:04.784Z,21.80
2018-06-12T03:31:34.314Z,21.80
2018-06-12T03:34:03.839Z,21.80
2018-06-12T03:39:02.448Z,21.80
2018-06-12T03:44:01.079Z,21.80
2018-06-12T03:46:30.642Z,21.80
2018-06-12T03:49:00.163Z,21.80
2018-06-12T03:51:29.694Z,21.80
2018-06-12T03:53:59.235Z,21.80
2018-06-12T03:56:28.745Z,21.80
2018-06-12T03:58:58.260Z,21.80
2018-06-12T04:01:27.818Z,21.80
2018-06-12T04:03:57.345Z,21.80
2018-06-12T04:06:26.898Z,21.80
2018-06-12T04:11:25.623Z,21.80
2018-06-12T04:16:24.230Z,21.70
2018-06-12T04:18:53.866Z,21.70
2018-06-12T04:21:23.554Z,21.70
2018-06-12T04:23:54.177Z,21.70
2018-06-12T04:26:23.713Z,21.70
2018-06-12T04:28:53.243Z,21.70
2018-06-12T04:31:22.784Z,21.70
2018-06-12T04:33:52.298Z,21.70
2018-06-12T04:36:21.908Z,21.70
2018-06-12T04:38:51.459Z,21.70
2018-06-12T04:41:20.994Z,21.70
2018-06-12T04:43:50.535Z,21.70
2018-06-12T04:46:20.063Z,21.70
2018-06-12T04:48:49.616Z,21.70
2018-06-12T04:51:19.143Z,21.70
2018-06-12T04:53:48.671Z,21.70
2018-06-12T04:56:18.213Z,21.70
2018-06-12T04:58:47.733Z,21.70
2018-06-12T05:01:17.245Z,21.70
2018-06-12T05:03:46.748Z,21.70
2018-06-12T05:06:16.266Z,21.60
2018-06-12T05:08:45.801Z,21.70
2018-06-12T05:11:15.346Z,21.70
2018-06-12T05:13:44.884Z,21.70
2018-06-12T05:16:14.397Z,21.70
2018-06-12T05:21:12.998Z,21.70
2018-06-12T05:23:42.534Z,21.60
2018-06-12T05:26:12.261Z,21.60
2018-06-12T05:28:41.787Z,21.60
2018-06-12T05:31:11.316Z,21.60
2018-06-12T05:33:40.865Z,21.60
2018-06-12T05:36:10.401Z,21.60
2018-06-12T05:38:39.921Z,21.60
2018-06-12T05:41:09.458Z,21.60
2018-06-12T05:43:39.127Z,21.60
2018-06-12T05:48:37.730Z,21.60
2018-06-12T05:53:36.419Z,21.60
2018-06-12T05:56:06.219Z,21.60
2018-06-12T05:58:35.756Z,21.60
2018-06-12T06:01:05.310Z,21.60
2018-06-12T06:03:34.840Z,21.60
2018-06-12T06:06:04.372Z,21.60
2018-06-12T06:08:33.900Z,21.60
2018-06-12T06:13:32.505Z,21.60
2018-06-12T06:16:02.051Z,21.60
2018-06-12T06:18:31.562Z,21.60
2018-06-12T06:21:01.145Z,21.60
2018-06-12T06:23:30.669Z,21.60
2018-06-12T06:26:00.198Z,21.60
2018-06-12T06:28:29.722Z,21.60
2018-06-12T06:30:59.237Z,21.60
2018-06-12T06:33:28.761Z,21.60
2018-06-12T06:38:27.358Z,21.50
2018-06-12T06:40:56.911Z,21.50
2018-06-12T06:43:26.424Z,21.50
2018-06-12T06:45:55.971Z,21.50
2018-06-12T06:48:25.506Z,21.60
2018-06-12T06:50:55.090Z,21.50
2018-06-12T06:53:24.550Z,21.50
2018-06-12T06:58:23.489Z,21.50
2018-06-12T07:00:53.012Z,21.50
2018-06-12T07:03:22.548Z,21.50
2018-06-12T07:05:52.088Z,21.50
2018-06-12T07:08:21.601Z,21.50
2018-06-12T07:13:20.288Z,21.50
2018-06-12T07:15:49.837Z,21.50
2018-06-12T07:18:19.361Z,21.50
2018-06-12T07:21:51.484Z,21.50
2018-06-12T07:24:21.011Z,21.60
2018-06-12T07:26:50.712Z,21.50
2018-06-12T07:29:20.231Z,21.50
2018-06-12T07:31:49.756Z,21.50
2018-06-12T07:34:19.278Z,21.50
2018-06-12T07:36:48.820Z,21.50
2018-06-12T07:39:18.359Z,21.50
2018-06-12T07:41:47.873Z,21.50
2018-06-12T07:44:17.388Z,21.50
2018-06-12T07:46:46.909Z,21.60
2018-06-12T07:51:45.546Z,21.50
2018-06-12T07:54:15.094Z,21.50
2018-06-12T07:56:44.613Z,21.50
2018-06-12T07:59:14.156Z,21.50
2018-06-12T08:01:43.718Z,21.50
2018-06-12T08:04:13.236Z,21.50
2018-06-12T08:06:42.753Z,21.50
2018-06-12T08:11:41.683Z,21.50
2018-06-12T08:14:11.199Z,21.60
2018-06-12T08:19:09.850Z,21.50
2018-06-12T08:24:08.552Z,21.60
2018-06-12T08:31:36.385Z,21.50
2018-06-12T08:34:05.912Z,21.60
2018-06-12T08:36:35.433Z,21.50
2018-06-12T08:39:06.908Z,21.50
2018-06-12T08:41:36.436Z,21.50
2018-06-12T08:44:05.972Z,21.50
2018-06-12T08:46:35.526Z,21.50
2018-06-12T08:49:05.300Z,21.50
2018-06-12T08:51:34.833Z,21.50
2018-06-12T08:56:33.448Z,21.50
2018-06-12T08:59:02.965Z,21.50
2018-06-12T09:01:32.487Z,21.50
2018-06-12T09:04:02.213Z,21.60
2018-06-12T09:06:31.749Z,21.50
2018-06-12T09:11:30.369Z,21.50
2018-06-12T09:13:59.879Z,21.50
2018-06-12T09:16:29.412Z,21.50
2018-06-12T09:18:58.940Z,21.60
2018-06-12T09:21:28.449Z,21.50
2018-06-12T09:23:57.970Z,21.50
2018-06-12T09:26:27.493Z,21.50
2018-06-12T09:31:26.434Z,21.60
2018-06-12T09:33:56.203Z,21.50
2018-06-12T09:36:31.056Z,21.50
2018-06-12T09:41:29.739Z,21.50
2018-06-12T09:43:59.246Z,21.60
2018-06-12T09:46:28.784Z,21.50
2018-06-12T09:48:58.310Z,21.60
2018-06-12T09:53:56.953Z,21.50
2018-06-12T09:56:26.495Z,21.50
2018-06-12T09:58:56.018Z,21.60
2018-06-12T10:01:25.576Z,21.50
2018-06-12T10:03:55.091Z,21.50
2018-06-12T10:06:24.647Z,21.50
2018-06-12T10:11:23.670Z,21.50
2018-06-12T10:13:53.201Z,21.50
2018-06-12T10:16:22.759Z,21.50
2018-06-12T10:18:52.272Z,21.40
2018-06-12T10:21:21.821Z,21.40
2018-06-12T10:23:51.357Z,21.50
2018-06-12T10:26:20.897Z,21.40
2018-06-12T10:28:50.432Z,21.50
2018-06-12T10:33:49.035Z,21.50
2018-06-12T10:36:18.558Z,21.50
2018-06-12T10:38:48.081Z,21.50
2018-06-12T10:41:17.626Z,21.50
2018-06-12T10:43:47.171Z,21.50
2018-06-12T10:46:16.720Z,21.50
2018-06-12T10:48:46.364Z,21.40
2018-06-12T10:51:15.892Z,21.40
2018-06-12T10:53:45.424Z,21.40
2018-06-12T10:56:14.967Z,21.40
2018-06-12T10:58:44.494Z,21.40
2018-06-12T11:01:14.022Z,21.40
2018-06-12T11:06:12.775Z,21.40
2018-06-12T11:08:42.268Z,21.40
2018-06-12T11:11:11.805Z,21.40
2018-06-12T11:13:41.326Z,21.40
2018-06-12T11:16:10.847Z,21.40
2018-06-12T11:21:09.424Z,21.40
2018-06-12T11:23:38.967Z,21.40
2018-06-12T11:26:08.490Z,21.40
2018-06-12T11:31:07.095Z,21.40
2018-06-12T11:33:36.637Z,21.40
2018-06-12T11:36:06.165Z,21.40
2018-06-12T11:38:35.681Z,21.40
2018-06-12T11:41:05.198Z,21.40
2018-06-12T11:46:03.867Z,21.30
2018-06-12T11:48:33.443Z,21.40
2018-06-12T11:51:03.079Z,21.30
2018-06-12T11:53:32.821Z,21.30
2018-06-12T11:56:02.363Z,21.40
2018-06-12T11:58:31.890Z,21.30
2018-06-12T12:01:01.417Z,21.40
2018-06-12T12:03:30.942Z,21.40
2018-06-12T12:06:00.452Z,21.40
2018-06-12T12:08:29.988Z,21.40
2018-06-12T12:10:59.505Z,21.40
2018-06-12T12:13:29.024Z,21.30
2018-06-12T12:18:27.632Z,21.40
2018-06-12T12:20:57.128Z,21.30
2018-06-12T12:25:55.773Z,21.30
2018-06-12T12:30:54.792Z,21.30
2018-06-12T12:33:24.332Z,21.30
2018-06-12T12:35:53.847Z,21.30
2018-06-12T12:38:23.367Z,21.30
2018-06-12T12:40:52.917Z,21.30
2018-06-12T12:43:22.510Z,21.30
2018-06-12T12:45:52.089Z,21.30
2018-06-12T12:48:21.672Z,21.30
2018-06-12T12:50:51.163Z,21.30
2018-06-12T12:53:20.732Z,21.30
2018-06-12T12:55:50.262Z,21.30
2018-06-12T12:58:19.798Z,21.30
2018-06-12T13:03:18.410Z,21.30
2018-06-12T13:05:47.943Z,21.30
2018-06-12T13:08:17.531Z,21.30
2018-06-12T13:10:47.008Z,21.30
2018-06-12T13:13:16.525Z,21.30
2018-06-12T13:15:46.058Z,21.30
2018-06-12T13:18:15.569Z,21.30
2018-06-12T13:20:44.864Z,21.30
2018-06-12T13:23:14.385Z,21.30
2018-06-12T13:25:43.916Z,21.30
2018-06-12T13:28:13.440Z,21.30
2018-06-12T13:33:12.393Z,21.30
2018-06-12T13:38:10.993Z,21.30
2018-06-12T13:40:40.549Z,21.30
2018-06-12T13:43:10.118Z,21.30
2018-06-12T13:45:39.688Z,21.30
2018-06-12T13:48:09.218Z,21.30
2018-06-12T13:50:38.725Z,21.30
2018-06-12T13:53:08.280Z,21.30
2018-06-12T13:55:37.822Z,21.30
2018-06-12T13:58:07.345Z,21.30
2018-06-12T14:00:36.909Z,21.30
2018-06-12T14:03:06.937Z,21.30
2018-06-12T14:05:36.486Z,21.30
2018-06-12T14:10:35.318Z,21.30
2018-06-12T14:13:04.876Z,21.30
2018-06-12T14:15:34.409Z,21.30
2018-06-12T14:20:33.029Z,21.30
2018-06-12T14:23:02.569Z,21.30
2018-06-12T14:25:32.101Z,21.30
2018-06-12T14:28:01.640Z,21.30
2018-06-12T14:30:31.178Z,21.30
2018-06-12T14:35:29.776Z,21.30
2018-06-12T14:40:28.386Z,21.30
2018-06-12T14:42:57.953Z,21.30
2018-06-12T14:45:27.488Z,21.20
2018-06-12T14:50:26.127Z,21.20
2018-06-12T14:52:55.706Z,21.30
2018-06-12T14:55:25.252Z,21.30
2018-06-12T14:57:54.998Z,21.30
2018-06-12T15:00:24.518Z,21.30
2018-06-12T15:02:54.053Z,21.20
2018-06-12T15:05:23.564Z,21.20
2018-06-12T15:07:53.079Z,21.30
2018-06-12T15:10:22.607Z,21.20
2018-06-12T15:12:52.142Z,21.20
2018-06-12T15:15:21.677Z,21.20
2018-06-12T15:17:51.200Z,21.20
2018-06-12T15:20:20.735Z,21.20
2018-06-12T15:22:50.268Z,21.20
2018-06-12T15:25:19.846Z,21.20
2018-06-12T15:27:49.324Z,21.20
2018-06-12T15:30:18.842Z,21.20
2018-06-12T15:32:48.372Z,21.20
2018-06-12T15:35:17.902Z,21.20
2018-06-12T15:37:47.432Z,21.20
2018-06-12T15:40:16.954Z,21.20
2018-06-12T15:42:46.481Z,21.20
2018-06-12T15:45:16.029Z,21.20
2018-06-12T15:47:45.533Z,21.10
2018-06-12T15:52:44.178Z,21.20
2018-06-12T15:55:13.721Z,21.10
2018-06-12T15:57:43.272Z,21.20
2018-06-12T16:00:12.788Z,21.10
2018-06-12T16:05:11.384Z,21.10
2018-06-12T16:07:40.928Z,21.20
2018-06-12T16:10:10.464Z,21.20
2018-06-12T16:12:40.027Z,21.20
2018-06-12T16:15:09.581Z,21.20
2018-06-12T16:17:39.118Z,21.20
2018-06-12T16:20:08.632Z,21.20
2018-06-12T16:25:07.237Z,21.10
2018-06-12T16:27:36.746Z,21.10
2018-06-12T16:30:06.286Z,21.10
2018-06-12T16:32:35.817Z,21.10
2018-06-12T16:35:05.330Z,21.10
2018-06-12T16:37:34.859Z,21.10
2018-06-12T16:40:04.379Z,21.10
2018-06-12T16:42:33.913Z,21.10
2018-06-12T16:45:03.434Z,21.10
2018-06-12T16:47:32.953Z,21.10
2018-06-12T16:50:02.486Z,21.10
2018-06-12T16:52:32.014Z,21.10
2018-06-12T16:57:30.875Z,21.10
2018-06-12T17:00:00.719Z,21.00
2018-06-12T17:07:28.879Z,21.00
2018-06-12T17:09:58.413Z,21.00
2018-06-12T17:12:27.949Z,21.10
2018-06-12T17:14:57.462Z,21.00
2018-06-12T17:17:26.990Z,21.00
2018-06-12T17:19:56.521Z,21.00
2018-06-12T17:22:26.047Z,21.00
2018-06-12T17:24:55.602Z,21.00
2018-06-12T17:27:25.141Z,21.00
2018-06-12T17:29:54.665Z,21.00
2018-06-12T17:32:24.186Z,21.00
2018-06-12T17:34:53.697Z,21.00
2018-06-12T17:37:23.237Z,21.00
2018-06-12T17:39:52.765Z,21.00
2018-06-12T17:42:22.315Z,21.00
2018-06-12T17:44:51.840Z,21.00
2018-06-12T17:47:21.352Z,21.00
2018-06-12T17:49:50.889Z,21.00
2018-06-12T17:52:20.418Z,21.00
2018-06-12T17:54:49.991Z,21.00
2018-06-12T17:57:19.450Z,21.00
2018-06-12T18:02:18.060Z,21.00
2018-06-12T18:07:16.654Z,21.00
2018-06-12T18:09:47.124Z,21.00
2018-06-12T18:14:45.729Z,21.00
2018-06-12T18:17:15.264Z,20.90
2018-06-12T18:22:18.211Z,21.00
2018-06-12T18:24:47.865Z,20.90
2018-06-12T18:27:17.501Z,20.90
2018-06-12T18:29:46.996Z,20.90
2018-06-12T18:32:16.529Z,20.90
2018-06-12T18:37:15.115Z,20.90
2018-06-12T18:39:44.624Z,20.90
2018-06-12T18:42:14.179Z,20.90
2018-06-12T18:47:12.786Z,20.90
2018-06-12T18:49:42.320Z,20.90
2018-06-12T18:52:11.850Z,20.90
2018-06-12T18:54:41.386Z,20.90
2018-06-12T18:57:10.932Z,20.90
2018-06-12T18:59:40.488Z,20.90
2018-06-12T19:02:10.013Z,20.90
2018-06-12T19:04:39.545Z,20.90
2018-06-12T19:07:09.077Z,20.80
2018-06-12T19:09:38.631Z,20.90
2018-06-12T19:12:08.152Z,20.90
2018-06-12T19:14:37.686Z,20.80
2018-06-12T19:17:07.239Z,20.90
2018-06-12T19:19:36.762Z,20.80
2018-06-12T19:22:06.350Z,20.80
2018-06-12T19:24:35.867Z,20.80
2018-06-12T19:27:05.631Z,20.80
2018-06-12T19:29:35.148Z,20.80
2018-06-12T19:32:04.685Z,20.80
2018-06-12T19:34:34.223Z,20.80
2018-06-12T19:39:32.848Z,20.80
2018-06-12T19:42:02.360Z,20.80
2018-06-12T19:44:31.898Z,20.80
2018-06-12T19:47:01.416Z,20.80
2018-06-12T19:49:30.953Z,20.80
2018-06-12T19:52:00.485Z,20.80
2018-06-12T19:54:30.028Z,20.80
2018-06-12T19:56:59.570Z,20.70
2018-06-12T19:59:29.118Z,20.80
2018-06-12T20:01:58.962Z,20.80
2018-06-12T20:04:28.479Z,20.80
2018-06-12T20:06:58.021Z,20.80
2018-06-12T20:09:27.570Z,20.70
2018-06-12T20:11:57.093Z,20.70
2018-06-12T20:14:26.641Z,20.80
2018-06-12T20:16:56.160Z,20.80
2018-06-12T20:19:25.684Z,20.60
2018-06-12T20:21:55.203Z,20.80
2018-06-12T20:24:24.731Z,20.70
2018-06-12T20:26:54.257Z,20.80
2018-06-12T20:29:23.786Z,20.80
2018-06-12T20:31:53.321Z,20.80
2018-06-12T20:34:22.870Z,20.70
2018-06-12T20:36:52.406Z,20.70
2018-06-12T20:39:21.960Z,20.70
2018-06-12T20:41:51.485Z,20.70
2018-06-12T20:44:21.027Z,20.70
2018-06-12T20:46:50.777Z,20.70
2018-06-12T20:51:49.379Z,20.70
2018-06-12T20:54:18.908Z,20.70
2018-06-12T20:56:48.444Z,20.70
2018-06-12T20:59:18.020Z,20.70
2018-06-12T21:01:47.606Z,20.70
2018-06-12T21:04:17.138Z,20.70
2018-06-12T21:06:46.694Z,20.70
2018-06-12T21:11:45.540Z,20.70
2018-06-12T21:14:15.085Z,20.70
2018-06-12T21:16:44.612Z,20.60
2018-06-12T21:19:14.145Z,20.70
2018-06-12T21:21:43.666Z,20.50
2018-06-12T21:24:13.189Z,20.60
2018-06-12T21:31:40.855Z,20.70
2018-06-12T21:34:10.378Z,20.60
2018-06-12T21:39:09.010Z,20.60
2018-06-12T21:41:38.609Z,20.60
2018-06-12T21:44:08.060Z,20.60
2018-06-12T21:49:06.877Z,20.60
2018-06-12T21:51:36.415Z,20.60
2018-06-12T21:54:05.951Z,20.60
2018-06-12T21:56:35.499Z,20.60
2018-06-12T21:59:05.189Z,20.60
2018-06-12T22:01:34.733Z,20.60
2018-06-12T22:04:04.275Z,20.60
2018-06-12T22:06:34.129Z,20.60
2018-06-12T22:11:33.525Z,20.60
2018-06-12T22:14:03.081Z,20.60
2018-06-12T22:16:32.604Z,20.60
2018-06-12T22:19:02.140Z,20.60
2018-06-12T22:21:31.669Z,20.60
2018-06-12T22:24:01.452Z,20.50
2018-06-12T22:26:31.001Z,20.50
2018-06-12T22:29:00.536Z,20.60
2018-06-12T22:31:32.133Z,20.60
2018-06-12T22:34:01.664Z,20.60
2018-06-12T22:36:31.229Z,20.60
2018-06-12T22:39:00.750Z,20.50
2018-06-12T22:41:30.333Z,20.50
2018-06-12T22:43:59.859Z,20.50
2018-06-12T22:46:29.386Z,20.50
2018-06-12T22:48:58.907Z,20.60
2018-06-12T22:51:28.436Z,20.50
2018-06-12T22:53:57.977Z,20.60
2018-06-12T22:56:27.489Z,20.60
2018-06-12T22:58:57.011Z,20.50
2018-06-12T23:01:26.537Z,20.50
2018-06-12T23:06:26.293Z,20.50
2018-06-12T23:08:55.809Z,20.50
2018-06-12T23:11:25.319Z,20.50
2018-06-12T23:13:54.877Z,20.50
2018-06-12T23:16:24.384Z,20.50
2018-06-12T23:21:48.037Z,20.50
2018-06-12T23:24:17.581Z,20.50
2018-06-12T23:26:47.104Z,20.50
2018-06-12T23:29:16.617Z,20.50
2018-06-12T23:31:46.155Z,20.50
2018-06-12T23:36:44.916Z,20.40
2018-06-12T23:39:14.515Z,20.50
2018-06-12T23:41:43.987Z,20.40
2018-06-12T23:46:42.560Z,20.40
2018-06-12T23:51:41.155Z,20.50
2018-06-12T23:54:10.689Z,20.40
2018-06-12T23:59:09.288Z,20.40
